METAR Data
IDs: Format: Raw Decoded Include TAF

Data at: 1042 UTC 21 Jan 2020

METAR for:KHCR (Heber City Muni, UT, US)
Text:KHCR 211035Z AUTO 13003KT 10SM UP SCT017 SCT038 OVC060 01/M03 A3006 RMK AO2
Temperature: 1.0°C ( 34°F)
Dewpoint: -3.0°C ( 27°F) [RH = 75%]
Pressure (altimeter):30.06 inches Hg (1018.0 mb)
Winds:from the SE (130 degrees) at 3 MPH (3 knots; 1.5 m/s)
Visibility:10 or more sm (16+ km)
Ceiling:6000 feet AGL
Clouds: scattered clouds at 1700 feet AGL, scattered clouds at 3800 feet AGL, overcast cloud deck at 6000 feet AGL
Weather:UP (unknown precipitation)
QC Flag:automated observation with no human augmentation